Time;durP1;ratioP1;P1;durP2;ratioP2;P2;SDS_P1;SDS_P2;PMS_P1;PMS_P2;Temp;Humidity;BMP_temperature;BMP_pressure;BME280_temperature;BME280_humidity;BME280_pressure;Samples;Min_cycle;Max_cycle;Signal;HPM_P1;HPM_P2
2021/05/17 00:00:22;;;;;;;;;;;;;;;11.13;82.37;98902.23;2812011;84;20204;-63
2021/05/17 00:04:33;;;;;;;;;;;;;;;11.13;82.29;98896.91;2812513;84;20172;-64
2021/05/17 00:08:35;;;;;;;;;;;;;;;11.08;82.55;98896.05;2812609;84;20560;-65
2021/05/17 00:12:36;;;;;;;;;;;;;;;11.06;82.63;98890.06;2749535;86;20174;-65
2021/05/17 00:16:39;;;;;;;;;;;;;;;11.04;82.94;98892.58;2812439;84;20169;-64
2021/05/17 00:20:41;;;;;;;;;;;;;;;11.05;82.92;98888.92;2812534;84;20173;-62
2021/05/17 00:24:42;;;;;;;;;;;;;;;11.04;82.59;98892.58;2812703;84;20187;-65
2021/05/17 00:28:44;;;;;;;;;;;;;;;11.02;82.70;98899.38;2749774;86;20178;-64
2021/05/17 00:32:46;;;;;;;;;;;;;;;11.00;82.67;98897.38;2812615;84;20169;-63
2021/05/17 00:36:48;;;;;;;;;;;;;;;10.93;83.14;98892.39;2733184;87;20193;-65
2021/05/17 00:40:50;;;;;;;;;;;;;;;10.86;83.46;98892.20;2733211;87;20235;-63
2021/05/17 00:44:51;;;;;;;;;;;;;;;10.83;83.55;98900.50;2732979;87;20208;-64
2021/05/17 00:48:53;;;;;;;;;;;;;;;10.76;83.63;98897.66;2732930;85;20203;-63
2021/05/17 00:52:56;;;;;;;;;;;;;;;10.72;83.79;98898.98;2729281;86;20193;-63
2021/05/17 00:56:57;;;;;;;;;;;;;;;10.77;83.38;98893.16;2728077;86;20229;-63
2021/05/17 01:01:01;;;;;;;;;;;;;;;10.76;83.10;98904.30;2709095;86;20212;-62
2021/05/17 01:05:04;;;;;;;;;;;;;;;10.78;82.86;98901.47;2727016;87;20495;-63
2021/05/17 01:09:08;;;;;;;;;;;;;;;10.73;83.10;98899.80;2728065;86;20209;-62
2021/05/17 01:13:11;;;;;;;;;;;;;;;10.68;83.54;98900.27;2728079;86;20201;-64
2021/05/17 01:17:13;;;;;;;;;;;;;;;10.67;83.81;98900.78;2728023;86;20169;-64
2021/05/17 01:21:17;;;;;;;;;;;;;;;10.63;83.72;98891.95;2728069;86;20569;-63
2021/05/17 01:25:21;;;;;;;;;;;;;;;10.55;83.61;98898.06;2728181;86;20181;-63
2021/05/17 01:29:22;;;;;;;;;;;;;;;10.43;83.74;98901.02;2727951;86;20616;-63
2021/05/17 01:33:27;;;;;;;;;;;;;;;10.36;83.91;98905.77;2727867;86;20214;-63
2021/05/17 01:37:33;;;;;;;;;;;;;;;10.41;84.12;98904.30;2727483;86;20177;-63
2021/05/17 01:41:35;;;;;;;;;;;;;;;10.45;83.39;98904.02;2727898;86;20205;-64
2021/05/17 01:45:38;;;;;;;;;;;;;;;10.51;83.16;98904.70;2727720;86;20569;-62
2021/05/17 01:49:40;;;;;;;;;;;;;;;10.44;82.83;98896.52;2727771;86;20213;-64
2021/05/17 01:53:43;;;;;;;;;;;;;;;10.32;83.49;98897.27;2732024;86;20196;-63
2021/05/17 01:57:45;;;;;;;;;;;;;;;10.32;83.63;98897.27;2732794;87;20216;-64
2021/05/17 02:01:48;;;;;;;;;;;;;;;10.40;83.54;98896.47;2733097;87;20181;-65
2021/05/17 02:05:50;;;;;;;;;;;;;;;10.38;83.06;98891.81;2733032;85;20160;-63
2021/05/17 02:09:54;;;;;;;;;;;;;;;10.27;83.73;98888.94;2732560;87;20176;-65
2021/05/17 02:13:55;;;;;;;;;;;;;;;10.10;83.82;98887.52;2732851;87;20146;-62
2021/05/17 02:18:10;;;;;;;;;;;;;;;9.96;84.61;98889.41;2732903;87;20173;-63
2021/05/17 02:22:12;;;;;;;;;;;;;;;9.82;85.04;98902.27;2713910;87;20157;-63
2021/05/17 02:26:13;;;;;;;;;;;;;;;9.66;85.47;98908.30;2732822;87;20236;-62
2021/05/17 02:30:16;;;;;;;;;;;;;;;9.59;85.47;98908.58;2732591;87;20182;-65
2021/05/17 02:34:18;;;;;;;;;;;;;;;9.52;85.59;98913.66;2732568;87;20172;-63
2021/05/17 02:38:19;;;;;;;;;;;;;;;9.39;85.82;98927.32;2732836;87;20181;-63
2021/05/17 02:42:23;;;;;;;;;;;;;;;9.32;85.63;98934.70;2732537;85;20169;-63
2021/05/17 02:46:25;;;;;;;;;;;;;;;9.28;86.51;98942.97;2732656;87;20196;-62
2021/05/17 02:50:38;;;;;;;;;;;;;;;9.30;87.15;98944.13;2732469;87;20209;-63
2021/05/17 02:54:42;;;;;;;;;;;;;;;9.45;87.75;98947.59;2727432;86;20525;-64
2021/05/17 02:58:45;;;;;;;;;;;;;;;9.66;88.24;98945.97;2727640;86;20149;-63
2021/05/17 03:02:50;;;;;;;;;;;;;;;9.86;88.46;98940.83;2727423;86;20245;-69
2021/05/17 03:07:10;;;;;;;;;;;;;;;10.07;88.18;98939.64;2726883;85;20184;-63
2021/05/17 03:11:13;;;;;;;;;;;;;;;10.26;87.96;98927.95;2726805;85;20304;-67
2021/05/17 03:15:14;;;;;;;;;;;;;;;10.51;87.96;98929.95;2727531;86;20169;-63
2021/05/17 03:19:17;;;;;;;;;;;;;;;10.66;86.48;98928.37;2727844;86;20656;-66
2021/05/17 03:23:19;;;;;;;;;;;;;;;10.69;85.46;98922.72;2727657;86;20165;-64
2021/05/17 03:27:23;;;;;;;;;;;;;;;10.83;85.16;98923.11;2729103;84;21029;-65
2021/05/17 03:31:24;;;;;;;;;;;;;;;10.89;84.23;98926.94;2727750;86;20545;-66
2021/05/17 03:35:26;;;;;;;;;;;;;;;10.65;83.89;98929.36;2727322;86;20188;-66
2021/05/17 03:39:27;;;;;;;;;;;;;;;10.45;84.84;98926.61;2727776;86;20145;-65
2021/05/17 03:43:28;;;;;;;;;;;;;;;10.49;85.58;98921.30;2727518;86;20216;-65
2021/05/17 03:47:30;;;;;;;;;;;;;;;10.58;85.40;98915.02;2727716;86;20177;-65
2021/05/17 03:51:32;;;;;;;;;;;;;;;10.72;85.48;98922.91;2727735;86;20278;-64
2021/05/17 03:55:34;;;;;;;;;;;;;;;10.70;84.47;98935.03;2727617;86;20244;-65
2021/05/17 03:59:36;;;;;;;;;;;;;;;10.54;85.30;98945.58;2727765;86;20177;-66
2021/05/17 04:03:38;;;;;;;;;;;;;;;10.63;86.68;98951.77;2727617;86;20149;-68
2021/05/17 04:16:18;;;;;;;;;;;;;;;13.70;82.60;98939.70;2727859;86;20197;-66
2021/05/17 04:20:20;;;;;;;;;;;;;;;15.01;79.35;98939.54;2728158;86;20176;-67
2021/05/17 04:24:21;;;;;;;;;;;;;;;15.98;77.06;98937.43;2727995;86;20233;-64
2021/05/17 04:28:23;;;;;;;;;;;;;;;16.80;75.24;98931.52;2728045;87;20506;-64
2021/05/17 04:32:24;;;;;;;;;;;;;;;17.64;72.33;98943.46;2728521;86;20234;-64
2021/05/17 04:36:28;;;;;;;;;;;;;;;17.79;66.12;98945.45;2728237;86;20218;-64
2021/05/17 04:40:29;;;;;;;;;;;;;;;16.97;66.53;98942.73;2728379;86;20529;-65
2021/05/17 04:44:31;;;;;;;;;;;;;;;16.68;67.96;98940.13;2728328;85;20157;-64
2021/05/17 04:48:33;;;;;;;;;;;;;;;16.60;68.83;98933.59;2728475;86;20197;-64
2021/05/17 04:52:34;;;;;;;;;;;;;;;16.46;68.25;98938.56;2728594;86;20280;-65
2021/05/17 04:56:36;;;;;;;;;;;;;;;16.73;70.71;98933.36;2728584;86;20517;-65
2021/05/17 05:00:38;;;;;;;;;;;;;;;17.11;68.67;98938.30;2728726;86;20177;-66
2021/05/17 05:04:39;;;;;;;;;;;;;;;16.78;67.75;98931.71;2728507;86;20197;-64
2021/05/17 05:08:40;;;;;;;;;;;;;;;16.44;68.53;98932.58;2728464;86;20181;-65
2021/05/17 05:12:42;;;;;;;;;;;;;;;16.02;69.25;98936.02;2728123;86;20185;-65
2021/05/17 05:16:43;;;;;;;;;;;;;;;15.60;71.33;98945.73;2728194;87;20238;-64
2021/05/17 05:20:45;;;;;;;;;;;;;;;15.10;73.92;98947.77;2728348;86;20197;-64
2021/05/17 05:24:47;;;;;;;;;;;;;;;15.08;76.01;98945.30;2728178;86;20205;-64
2021/05/17 05:33:15;;;;;;;;;;;;;;;15.68;75.21;98953.62;2728322;86;20173;-67
2021/05/17 05:37:17;;;;;;;;;;;;;;;16.01;76.77;98960.33;2728281;86;20201;-66
2021/05/17 05:41:18;;;;;;;;;;;;;;;16.15;74.74;98958.61;2728383;86;20212;-65
2021/05/17 05:45:20;;;;;;;;;;;;;;;16.21;74.60;98958.66;2728349;87;20169;-67
2021/05/17 05:49:24;;;;;;;;;;;;;;;16.50;75.32;98958.61;2633694;89;20554;-65
2021/05/17 05:53:25;;;;;;;;;;;;;;;16.75;73.88;98950.09;2654334;87;20161;-65
2021/05/17 05:57:27;;;;;;;;;;;;;;;16.72;72.74;98964.73;2740315;86;20554;-65
2021/05/17 06:01:28;;;;;;;;;;;;;;;16.76;73.43;98965.18;2740232;85;20196;-65
2021/05/17 06:05:29;;;;;;;;;;;;;;;17.02;74.51;98961.82;2740345;87;20303;-65
2021/05/17 06:09:31;;;;;;;;;;;;;;;17.47;73.36;98961.31;2740527;86;20132;-66
2021/05/17 06:13:34;;;;;;;;;;;;;;;17.56;71.53;98970.86;2740429;86;20161;-66
2021/05/17 06:17:36;;;;;;;;;;;;;;;17.48;71.50;98970.22;2740274;86;20157;-66
2021/05/17 06:21:40;;;;;;;;;;;;;;;17.37;72.13;98975.67;2740572;86;20216;-66
2021/05/17 06:25:42;;;;;;;;;;;;;;;17.33;73.28;98974.43;2740280;85;20171;-66
2021/05/17 06:29:45;;;;;;;;;;;;;;;17.46;72.20;98969.60;2740493;87;20176;-65
2021/05/17 06:33:47;;;;;;;;;;;;;;;17.54;72.96;98966.20;2740752;86;20200;-66
2021/05/17 06:37:48;;;;;;;;;;;;;;;17.55;72.64;98975.93;2757599;86;20182;-65
2021/05/17 06:41:50;;;;;;;;;;;;;;;17.59;71.92;98975.52;2841473;83;20221;-67
2021/05/17 06:45:52;;;;;;;;;;;;;;;17.65;71.61;98978.73;2842561;83;20166;-68
2021/05/17 06:49:54;;;;;;;;;;;;;;;17.65;71.16;98984.10;2843411;83;20142;-65
2021/05/17 06:53:59;;;;;;;;;;;;;;;17.53;71.05;98973.97;2841058;83;20185;-68
2021/05/17 06:58:11;;;;;;;;;;;;;;;17.37;72.80;98972.98;2838524;83;20186;-69
2021/05/17 07:02:12;;;;;;;;;;;;;;;17.37;72.66;98972.45;2838024;83;20166;-68
2021/05/17 07:06:18;;;;;;;;;;;;;;;17.45;73.12;98983.55;2838190;83;20158;-68
2021/05/17 07:14:40;;;;;;;;;;;;;;;17.62;73.93;99005.52;2839081;84;20177;-64
2021/05/17 07:18:41;;;;;;;;;;;;;;;17.78;72.13;99003.46;2839002;84;20174;-66
2021/05/17 07:27:03;;;;;;;;;;;;;;;18.12;70.95;99018.66;2838904;83;20174;-65
2021/05/17 07:31:07;;;;;;;;;;;;;;;18.25;69.14;99019.67;2839085;83;20154;-64
2021/05/17 07:35:09;;;;;;;;;;;;;;;18.48;68.75;99026.52;2839056;84;20545;-66
2021/05/17 07:39:11;;;;;;;;;;;;;;;18.65;68.62;99022.33;2838504;82;20163;-65
2021/05/17 07:43:12;;;;;;;;;;;;;;;19.23;69.73;99015.35;2753110;86;20158;-65
2021/05/17 07:47:15;;;;;;;;;;;;;;;19.71;67.46;99013.26;2816254;84;20181;-65
2021/05/17 07:51:16;;;;;;;;;;;;;;;19.97;65.37;99012.80;2753434;85;20151;-64
2021/05/17 07:55:21;;;;;;;;;;;;;;;20.05;64.02;99010.36;2828081;84;20228;-65
2021/05/17 07:59:23;;;;;;;;;;;;;;;20.33;63.62;99016.67;2751731;86;20175;-65
2021/05/17 08:03:24;;;;;;;;;;;;;;;20.35;61.56;99009.17;2740304;87;20169;-66
2021/05/17 08:07:26;;;;;;;;;;;;;;;20.19;60.24;98994.87;2740234;87;20217;-63
2021/05/17 08:11:27;;;;;;;;;;;;;;;20.11;63.13;98980.62;2740382;87;20220;-66
2021/05/17 08:15:29;;;;;;;;;;;;;;;19.93;60.47;98979.20;2740265;87;20177;-67
2021/05/17 08:19:32;;;;;;;;;;;;;;;19.72;61.70;98966.35;2739041;85;20189;-68
2021/05/17 08:23:35;;;;;;;;;;;;;;;19.37;60.98;98982.95;2739599;87;20157;-67
2021/05/17 08:27:36;;;;;;;;;;;;;;;19.24;62.83;98988.70;2779203;83;20133;-69
2021/05/17 08:31:38;;;;;;;;;;;;;;;19.21;61.37;98991.83;2841373;83;20172;-67
2021/05/17 08:35:40;;;;;;;;;;;;;;;19.19;60.72;98985.02;2841288;84;20168;-67
2021/05/17 08:39:42;;;;;;;;;;;;;;;19.06;61.20;98992.11;2841001;83;20180;-68
2021/05/17 08:43:44;;;;;;;;;;;;;;;19.00;60.93;98995.66;2841065;84;20219;-66
2021/05/17 08:47:46;;;;;;;;;;;;;;;18.99;62.34;98999.40;2842100;83;20156;-66
2021/05/17 08:51:48;;;;;;;;;;;;;;;19.11;62.03;98991.47;2842619;84;20528;-69
2021/05/17 08:55:50;;;;;;;;;;;;;;;19.12;60.40;98997.17;2836394;83;20164;-70
2021/05/17 08:59:51;;;;;;;;;;;;;;;19.23;59.89;99001.87;2834945;84;20172;-68
2021/05/17 09:04:04;;;;;;;;;;;;;;;19.38;59.34;98999.43;2834933;83;20208;-67
2021/05/17 09:08:06;;;;;;;;;;;;;;;19.48;60.70;99003.01;2835567;84;20172;-66
2021/05/17 09:12:11;;;;;;;;;;;;;;;19.59;59.92;99016.33;2835089;83;20180;-68
2021/05/17 09:16:12;;;;;;;;;;;;;;;19.61;58.59;99014.23;2835041;83;20212;-71
2021/05/17 09:20:34;;;;;;;;;;;;;;;19.66;58.36;99009.05;2807813;84;20210;-71
2021/05/17 09:24:50;;;;;;;;;;;;;;;19.78;57.88;99008.64;2782513;85;20209;-71
2021/05/17 09:28:53;;;;;;;;;;;;;;;19.99;57.05;98999.91;2743771;85;20165;-69
2021/05/17 09:32:54;;;;;;;;;;;;;;;20.21;58.47;99011.67;2743932;85;20170;-71
2021/05/17 09:36:59;;;;;;;;;;;;;;;20.33;56.61;99013.13;2743847;86;20235;-71
2021/05/17 09:41:09;;;;;;;;;;;;;;;20.44;56.25;99012.92;2718531;86;20185;-70
2021/05/17 09:45:14;;;;;;;;;;;;;;;20.62;57.89;99017.02;2744127;86;20177;-70
2021/05/17 09:49:16;;;;;;;;;;;;;;;20.72;57.34;99019.73;2744074;86;20174;-69
2021/05/17 09:53:25;;;;;;;;;;;;;;;20.64;57.14;99016.80;2745160;86;20218;-68
2021/05/17 09:57:42;;;;;;;;;;;;;;;20.68;57.29;99016.14;2814440;83;20319;-68
2021/05/17 10:01:43;;;;;;;;;;;;;;;20.84;57.69;99007.18;2814880;84;20149;-66
2021/05/17 10:05:47;;;;;;;;;;;;;;;20.85;57.28;99004.78;2815646;84;20181;-69
2021/05/17 10:09:50;;;;;;;;;;;;;;;21.02;55.99;99004.99;2816120;84;20168;-67
2021/05/17 10:13:53;;;;;;;;;;;;;;;21.12;57.50;99004.45;2816090;84;20149;-70
2021/05/17 10:17:58;;;;;;;;;;;;;;;21.08;58.83;99003.27;2816700;84;20153;-69
2021/05/17 10:22:00;;;;;;;;;;;;;;;21.02;57.62;99000.94;2815980;84;20157;-68
2021/05/17 10:26:12;;;;;;;;;;;;;;;20.96;58.09;98986.44;2816193;83;20161;-71
2021/05/17 10:30:16;;;;;;;;;;;;;;;20.89;58.02;98992.46;2815843;84;20181;-70
2021/05/17 10:34:17;;;;;;;;;;;;;;;20.76;58.70;98988.00;2800322;84;20192;-69
2021/05/17 10:38:45;;;;;;;;;;;;;;;20.66;57.50;98985.82;2816302;84;20168;-67
2021/05/17 10:42:51;;;;;;;;;;;;;;;20.49;57.18;98988.27;2864079;83;20163;-70
2021/05/17 10:46:52;;;;;;;;;;;;;;;20.55;59.95;98994.66;2864384;82;20190;-68
2021/05/17 10:51:17;;;;;;;;;;;;;;;20.54;57.51;98998.41;2864357;82;20175;-65
2021/05/17 10:55:18;;;;;;;;;;;;;;;20.47;58.67;98997.66;2855345;82;20196;-69
2021/05/17 11:03:42;;;;;;;;;;;;;;;20.63;59.45;98988.95;2830002;84;20188;-69
2021/05/17 11:07:55;;;;;;;;;;;;;;;20.66;59.02;98990.39;2832929;84;20595;-70
2021/05/17 11:11:57;;;;;;;;;;;;;;;20.58;58.68;99000.14;2833035;84;20196;-75
2021/05/17 11:16:08;;;;;;;;;;;;;;;20.38;59.40;98997.11;2831475;84;20212;-74
2021/05/17 11:20:33;;;;;;;;;;;;;;;20.36;59.65;98997.32;2831741;84;20172;-73
2021/05/17 11:24:37;;;;;;;;;;;;;;;20.36;60.26;99000.02;2831828;83;20164;-75
2021/05/17 11:28:43;;;;;;;;;;;;;;;20.42;58.25;99009.11;2831722;84;20165;-74
2021/05/17 11:32:45;;;;;;;;;;;;;;;20.39;59.33;99010.91;2831550;84;20200;-75
2021/05/17 11:36:56;;;;;;;;;;;;;;;20.30;61.82;99018.47;2831761;84;20220;-73
2021/05/17 11:40:58;;;;;;;;;;;;;;;19.92;61.76;99015.33;2828940;84;20227;-74
2021/05/17 11:45:23;;;;;;;;;;;;;;;19.49;63.03;99023.53;2831241;84;20188;-75
2021/05/17 11:49:20;;;;;;;;;;;;;;;19.29;64.72;99026.34;2806497;84;20557;-76
2021/05/17 11:53:21;;;;;;;;;;;;;;;19.17;64.67;99027.00;2830673;84;20206;-74
2021/05/17 11:57:34;;;;;;;;;;;;;;;19.07;64.41;99028.80;2850006;83;20166;-71
2021/05/17 12:01:36;;;;;;;;;;;;;;;19.07;65.41;99034.72;2793233;85;20172;-70
2021/05/17 12:05:37;;;;;;;;;;;;;;;19.09;65.45;99034.80;2768929;86;20147;-67
2021/05/17 12:09:47;;;;;;;;;;;;;;;19.09;64.82;99029.94;2769888;86;20191;-66
2021/05/17 12:13:48;;;;;;;;;;;;;;;19.02;64.84;99027.77;2768359;85;20191;-68
2021/05/17 12:17:50;;;;;;;;;;;;;;;19.07;65.97;99021.25;2768933;85;20239;-68
2021/05/17 12:21:57;;;;;;;;;;;;;;;19.10;63.91;99014.89;2768772;85;20194;-70
2021/05/17 12:25:58;;;;;;;;;;;;;;;19.11;64.90;99014.38;2768187;85;20172;-70
2021/05/17 12:30:10;;;;;;;;;;;;;;;19.21;63.50;99008.00;2769087;85;20175;-71
2021/05/17 12:34:11;;;;;;;;;;;;;;;19.36;63.76;99002.86;2769059;85;20171;-68
2021/05/17 12:38:15;;;;;;;;;;;;;;;19.55;63.71;99003.28;2769099;85;20217;-70
2021/05/17 12:42:16;;;;;;;;;;;;;;;19.74;62.63;99000.68;2769331;86;20223;-66
2021/05/17 12:46:18;;;;;;;;;;;;;;;19.87;64.94;99007.85;2768406;85;20175;-66
2021/05/17 12:50:22;;;;;;;;;;;;;;;20.04;64.80;99012.21;2768075;86;20184;-70
2021/05/17 12:54:23;;;;;;;;;;;;;;;20.18;63.57;99008.06;2780183;85;20187;-61
2021/05/17 12:58:33;;;;;;;;;;;;;;;20.31;61.39;99005.27;2774628;85;20179;-62
2021/05/17 13:02:34;;;;;;;;;;;;;;;20.43;62.44;98998.61;2774500;86;20163;-61
2021/05/17 13:06:36;;;;;;;;;;;;;;;20.67;61.28;98999.62;2774434;85;20155;-64
2021/05/17 13:10:58;;;;;;;;;;;;;;;20.86;62.33;98994.78;2775115;86;20179;-61
2021/05/17 13:15:03;;;;;;;;;;;;;;;20.94;64.65;98993.95;2773144;85;20223;-61
2021/05/17 13:32:21;;;;;;;;;;;;;;;21.28;61.69;98993.54;2728517;87;20162;-66
2021/05/17 13:36:23;;;;;;;;;;;;;;;21.31;61.17;99003.09;2728444;86;20158;-66
2021/05/17 13:40:26;;;;;;;;;;;;;;;21.37;61.92;98998.11;2728420;86;20182;-66
2021/05/17 13:44:27;;;;;;;;;;;;;;;21.43;61.50;99000.43;2728510;87;20180;-66
2021/05/17 13:48:29;;;;;;;;;;;;;;;21.52;61.42;99000.42;2701006;87;20215;-67
2021/05/17 13:52:30;;;;;;;;;;;;;;;21.67;61.93;99004.89;2701054;87;20184;-66
2021/05/17 13:56:32;;;;;;;;;;;;;;;21.72;61.61;98997.45;2705700;85;20177;-66
2021/05/17 14:00:34;;;;;;;;;;;;;;;21.61;62.30;98996.33;2816501;84;20224;-66
2021/05/17 14:04:35;;;;;;;;;;;;;;;21.57;61.55;98999.71;2816620;84;20168;-66
2021/05/17 14:08:36;;;;;;;;;;;;;;;21.53;60.92;98996.12;2816629;84;20200;-66
2021/05/17 14:12:39;;;;;;;;;;;;;;;21.50;60.80;98999.80;2816384;84;20560;-67
2021/05/17 14:16:41;;;;;;;;;;;;;;;21.39;60.69;98993.29;2816409;83;20985;-66
2021/05/17 14:20:43;;;;;;;;;;;;;;;21.34;61.53;98987.75;2816788;84;20204;-66
2021/05/17 14:24:44;;;;;;;;;;;;;;;21.35;61.02;98996.16;2816358;84;20192;-66
2021/05/17 14:28:47;;;;;;;;;;;;;;;21.28;62.48;98996.78;2816409;84;20204;-66
2021/05/17 14:32:49;;;;;;;;;;;;;;;21.15;61.83;99003.19;2816549;84;20168;-67
2021/05/17 14:36:50;;;;;;;;;;;;;;;21.06;62.21;98997.27;2736737;87;20185;-66
2021/05/17 14:40:51;;;;;;;;;;;;;;;21.00;62.32;98994.09;2737126;87;20161;-66
2021/05/17 14:44:53;;;;;;;;;;;;;;;20.96;62.57;99004.55;2736963;87;20185;-66
2021/05/17 14:48:54;;;;;;;;;;;;;;;20.92;62.73;99010.92;2736863;87;20217;-67
2021/05/17 14:52:55;;;;;;;;;;;;;;;20.90;63.31;99006.27;2736775;85;20716;-66
2021/05/17 14:56:58;;;;;;;;;;;;;;;20.88;63.36;99005.67;2729477;86;20153;-66
2021/05/17 15:00:59;;;;;;;;;;;;;;;20.87;64.36;99008.08;2701034;87;20181;-66
2021/05/17 15:05:01;;;;;;;;;;;;;;;20.77;63.83;99009.92;2732289;87;20205;-66
2021/05/17 15:09:04;;;;;;;;;;;;;;;20.58;63.35;99020.41;2732326;86;20153;-65
2021/05/17 15:13:06;;;;;;;;;;;;;;;20.41;63.02;99017.72;2732392;86;20193;-66
2021/05/17 15:17:07;;;;;;;;;;;;;;;20.26;62.59;99021.31;2732267;87;20212;-66
2021/05/17 15:21:09;;;;;;;;;;;;;;;20.07;61.74;99017.70;2732134;86;20264;-66
2021/05/17 15:25:13;;;;;;;;;;;;;;;20.01;63.04;99019.41;2732178;86;20181;-66
2021/05/17 15:29:15;;;;;;;;;;;;;;;19.90;63.25;99020.09;2733173;87;20169;-66
2021/05/17 15:33:17;;;;;;;;;;;;;;;19.82;64.04;99030.08;2734328;86;20181;-66
2021/05/17 15:37:18;;;;;;;;;;;;;;;19.76;63.54;99030.96;2733641;87;20149;-66
2021/05/17 15:41:20;;;;;;;;;;;;;;;19.69;62.95;99031.53;2775474;85;20176;-67
2021/05/17 15:45:23;;;;;;;;;;;;;;;19.60;63.84;99038.20;2804791;85;20163;-66
2021/05/17 15:49:24;;;;;;;;;;;;;;;19.54;63.39;99033.99;2790919;85;20143;-62
2021/05/17 15:53:28;;;;;;;;;;;;;;;19.54;64.89;99033.99;2777979;85;20135;-63
2021/05/17 15:57:29;;;;;;;;;;;;;;;19.60;65.11;99038.20;2783935;84;20542;-63
2021/05/17 16:01:32;;;;;;;;;;;;;;;19.67;64.62;99043.06;2786611;85;20202;-63
2021/05/17 16:05:34;;;;;;;;;;;;;;;19.70;64.32;99045.33;2786665;84;20563;-63
2021/05/17 16:09:35;;;;;;;;;;;;;;;19.74;65.18;99041.14;2786776;85;20182;-63
2021/05/17 16:13:57;;;;;;;;;;;;;;;19.81;65.64;99043.27;2787216;85;20159;-63
2021/05/17 16:22:02;;;;;;;;;;;;;;;19.84;65.13;99041.48;2756356;84;20217;-62
2021/05/17 16:26:03;;;;;;;;;;;;;;;19.81;65.21;99043.27;2741284;87;20145;-62
2021/05/17 16:30:06;;;;;;;;;;;;;;;19.79;64.98;99039.97;2741255;85;20165;-63
2021/05/17 16:34:09;;;;;;;;;;;;;;;19.76;65.67;99032.31;2741370;87;20493;-63
2021/05/17 16:38:10;;;;;;;;;;;;;;;19.73;65.83;99038.14;2741544;87;20169;-63
2021/05/17 16:42:12;;;;;;;;;;;;;;;19.70;66.11;99040.73;2741706;85;20165;-63
2021/05/17 16:46:14;;;;;;;;;;;;;;;19.69;66.79;99047.72;2742078;87;20208;-62
2021/05/17 16:50:15;;;;;;;;;;;;;;;19.59;64.97;99042.80;2741818;85;20161;-62
2021/05/17 16:54:20;;;;;;;;;;;;;;;19.51;65.46;99048.41;2741750;85;20185;-62
2021/05/17 16:58:21;;;;;;;;;;;;;;;19.40;65.30;99049.41;2731975;87;20170;-62
2021/05/17 17:02:23;;;;;;;;;;;;;;;19.37;66.11;99053.05;2730200;87;20173;-62
2021/05/17 17:06:24;;;;;;;;;;;;;;;19.31;66.54;99050.68;2729895;86;20206;-63
2021/05/17 17:10:31;;;;;;;;;;;;;;;19.28;67.01;99050.30;2729680;86;20146;-62
2021/05/17 17:14:37;;;;;;;;;;;;;;;19.28;67.32;99057.85;2729248;86;20177;-62
2021/05/17 17:18:39;;;;;;;;;;;;;;;19.16;68.13;99059.54;2729487;86;20185;-62
2021/05/17 17:22:41;;;;;;;;;;;;;;;18.93;68.40;99065.70;2766956;86;20183;-62
2021/05/17 17:26:47;;;;;;;;;;;;;;;18.72;67.87;99068.64;2774412;86;20171;-62
2021/05/17 17:30:49;;;;;;;;;;;;;;;18.64;70.73;99085.84;2773514;85;20143;-62
2021/05/17 17:34:52;;;;;;;;;;;;;;;18.52;63.95;99089.15;2773442;85;20171;-61
2021/05/17 17:38:55;;;;;;;;;;;;;;;18.29;62.28;99097.65;2773394;85;20175;-61
2021/05/17 17:42:57;;;;;;;;;;;;;;;17.94;60.94;99087.00;2773168;85;20167;-62
2021/05/17 17:46:59;;;;;;;;;;;;;;;17.74;61.20;99094.50;2772831;85;20151;-62
2021/05/17 17:51:01;;;;;;;;;;;;;;;17.55;62.73;99099.59;2772722;85;20174;-62
2021/05/17 17:55:03;;;;;;;;;;;;;;;17.41;63.19;99096.53;2772704;86;20167;-62
2021/05/17 17:59:06;;;;;;;;;;;;;;;17.20;63.16;99099.63;2782968;85;20218;-61
2021/05/17 18:03:09;;;;;;;;;;;;;;;16.98;62.81;99097.50;2784418;85;20150;-62
2021/05/17 18:07:12;;;;;;;;;;;;;;;16.80;63.29;99096.66;2784478;85;20166;-62
2021/05/17 18:11:17;;;;;;;;;;;;;;;16.64;63.22;99097.27;2782452;84;20163;-62
2021/05/17 18:15:22;;;;;;;;;;;;;;;16.50;62.61;99093.66;2783751;85;20187;-62
2021/05/17 18:19:25;;;;;;;;;;;;;;;16.42;62.41;99089.25;2782856;85;20179;-61
2021/05/17 18:23:26;;;;;;;;;;;;;;;16.34;62.14;99086.72;2738152;85;20160;-61
2021/05/17 18:27:28;;;;;;;;;;;;;;;16.30;62.31;99094.81;2738571;87;20176;-62
2021/05/17 18:32:00;;;;;;;;;;;;;;;16.26;62.11;99091.70;2738072;87;20173;-62
2021/05/17 18:36:02;;;;;;;;;;;;;;;16.23;62.67;99094.77;2559188;92;20200;-61
2021/05/17 18:40:05;;;;;;;;;;;;;;;16.20;63.26;99101.02;2560004;91;20165;-61
2021/05/17 18:48:13;;;;;;;;;;;;;;;16.12;65.21;99113.55;2560769;92;20180;-61
2021/05/17 18:52:15;;;;;;;;;;;;;;;16.11;66.32;99113.73;2553412;92;20166;-62
2021/05/17 18:56:20;;;;;;;;;;;;;;;16.02;67.38;99123.75;2537802;93;29926;-61
2021/05/17 19:00:23;;;;;;;;;;;;;;;15.95;69.19;99130.38;2583880;92;20189;-61
2021/05/17 19:04:25;;;;;;;;;;;;;;;15.69;70.05;99129.52;2556100;92;20194;-62
2021/05/17 19:08:27;;;;;;;;;;;;;;;15.44;70.73;99137.88;2556086;93;20216;-62
2021/05/17 19:12:29;;;;;;;;;;;;;;;15.31;71.58;99144.38;2556120;92;20207;-62
2021/05/17 19:16:35;;;;;;;;;;;;;;;15.35;72.06;99148.38;2555910;92;20234;-61
2021/05/17 19:20:36;;;;;;;;;;;;;;;15.28;71.00;99152.30;2557481;92;20198;-62
2021/05/17 19:24:38;;;;;;;;;;;;;;;15.23;71.94;99147.48;2560942;92;20186;-62
2021/05/17 19:28:47;;;;;;;;;;;;;;;15.22;71.82;99159.22;2574689;91;20148;-61
2021/05/17 19:32:49;;;;;;;;;;;;;;;15.23;71.69;99162.22;2617885;90;20211;-61
2021/05/17 19:36:52;;;;;;;;;;;;;;;15.21;71.82;99156.22;2641545;90;20174;-61
2021/05/17 19:40:53;;;;;;;;;;;;;;;15.22;71.59;99167.26;2641152;89;20206;-61
2021/05/17 19:44:55;;;;;;;;;;;;;;;15.23;72.49;99165.39;2641498;90;20183;-61
2021/05/17 19:53:16;;;;;;;;;;;;;;;15.15;73.93;99163.66;2638732;90;20194;-62
2021/05/17 19:57:18;;;;;;;;;;;;;;;15.11;74.38;99169.03;2691920;88;20171;-62
2021/05/17 20:01:19;;;;;;;;;;;;;;;15.15;74.91;99166.34;2692410;88;20191;-62
2021/05/17 20:05:20;;;;;;;;;;;;;;;15.12;74.72;99169.36;2692696;88;20495;-62
2021/05/17 20:09:22;;;;;;;;;;;;;;;15.05;74.91;99166.61;2692465;88;20196;-62
2021/05/17 20:13:24;;;;;;;;;;;;;;;15.05;75.17;99164.42;2692373;88;20175;-62
2021/05/17 20:17:25;;;;;;;;;;;;;;;15.09;75.43;99165.71;2692739;88;20167;-62
2021/05/17 20:21:27;;;;;;;;;;;;;;;15.12;75.36;99155.47;2692510;88;20227;-62
2021/05/17 20:25:29;;;;;;;;;;;;;;;15.08;75.57;99158.69;2692626;88;20606;-64
2021/05/17 20:29:31;;;;;;;;;;;;;;;15.07;76.01;99161.89;2692307;88;20203;-64
2021/05/17 20:37:38;;;;;;;;;;;;;;;14.90;75.56;99153.17;2689024;88;20559;-64
2021/05/17 20:41:40;;;;;;;;;;;;;;;14.82;75.64;99155.41;2687978;88;20235;-63
2021/05/17 20:45:42;;;;;;;;;;;;;;;14.73;76.10;99163.20;2688725;88;20151;-64
2021/05/17 20:49:44;;;;;;;;;;;;;;;14.65;76.23;99167.27;2688413;88;20162;-63
2021/05/17 20:53:46;;;;;;;;;;;;;;;14.53;76.48;99160.98;2688283;88;20187;-64
2021/05/17 20:57:47;;;;;;;;;;;;;;;14.45;76.81;99160.22;2688509;88;20215;-63
2021/05/17 21:01:50;;;;;;;;;;;;;;;14.38;77.02;99163.62;2688560;88;20262;-63
2021/05/17 21:05:57;;;;;;;;;;;;;;;14.34;77.20;99165.48;2688299;88;20171;-63
2021/05/17 21:09:55;;;;;;;;;;;;;;;14.27;77.30;99160.85;2687652;88;20163;-63
2021/05/17 21:13:56;;;;;;;;;;;;;;;14.22;77.61;99163.20;2687998;88;20211;-63
2021/05/17 21:17:58;;;;;;;;;;;;;;;14.16;78.17;99163.11;2688249;88;20222;-63
2021/05/17 21:21:59;;;;;;;;;;;;;;;14.09;78.62;99164.31;2687937;88;20184;-63
2021/05/17 21:26:03;;;;;;;;;;;;;;;14.02;79.13;99166.85;2687933;88;20164;-63
2021/05/17 21:30:06;;;;;;;;;;;;;;;14.01;79.32;99167.86;2687813;88;20156;-64
2021/05/17 21:34:07;;;;;;;;;;;;;;;13.98;79.60;99173.05;2689047;88;20207;-63
2021/05/17 21:38:08;;;;;;;;;;;;;;;13.95;79.72;99171.22;2691409;88;20484;-63
2021/05/17 21:42:11;;;;;;;;;;;;;;;13.90;79.91;99171.77;2690854;88;20183;-64
2021/05/17 21:46:13;;;;;;;;;;;;;;;13.87;80.00;99176.13;2691517;88;20535;-63
2021/05/17 21:50:17;;;;;;;;;;;;;;;13.85;79.92;99175.44;2691292;88;20219;-63
2021/05/17 21:54:18;;;;;;;;;;;;;;;13.82;79.96;99181.98;2691115;88;20187;-64
2021/05/17 21:58:20;;;;;;;;;;;;;;;13.82;80.05;99194.02;2691236;88;20195;-63
2021/05/17 22:02:21;;;;;;;;;;;;;;;13.79;80.18;99194.37;2691423;88;20156;-63